Time;durP1;ratioP1;P1;durP2;ratioP2;P2;SDS_P1;SDS_P2;PMS_P1;PMS_P2;Temp;Humidity;BMP_temperature;BMP_pressure;BME280_temperature;BME280_humidity;BME280_pressure;Samples;Min_cycle;Max_cycle;Signal;HPM_P1;HPM_P2
2022/07/26 00:01:59;;;;;;;5.23;2.30;;;23.30;91.70;;;;;;5012563;28;20448;-67
2022/07/26 00:04:25;;;;;;;3.27;2.20;;;23.40;91.70;;;;;;5030352;28;20821;-67
2022/07/26 00:06:51;;;;;;;10.13;2.70;;;23.40;92.30;;;;;;5012325;28;20199;-67
2022/07/26 00:09:17;;;;;;;7.13;1.97;;;23.40;92.40;;;;;;5030350;28;20414;-67
2022/07/26 00:11:42;;;;;;;4.20;1.90;;;23.30;92.60;;;;;;5030236;28;20207;-67
2022/07/26 00:14:08;;;;;;;3.47;2.23;;;23.30;92.60;;;;;;5029983;28;20271;-67
2022/07/26 00:16:35;;;;;;;5.20;2.10;;;23.30;92.80;;;;;;5030335;28;20188;-66
2022/07/26 00:19:01;;;;;;;2.70;1.70;;;23.30;92.60;;;;;;4996012;28;20210;-67
2022/07/26 00:21:27;;;;;;;3.70;2.33;;;23.30;92.90;;;;;;5030009;28;20857;-67
2022/07/26 00:23:52;;;;;;;4.40;2.00;;;23.30;92.70;;;;;;5030129;28;20426;-67
2022/07/26 00:26:18;;;;;;;9.50;2.37;;;23.30;92.80;;;;;;5029924;28;20218;-67
2022/07/26 00:28:44;;;;;;;7.30;2.23;;;23.30;93.40;;;;;;5029760;28;20682;-66
2022/07/26 00:31:11;;;;;;;7.20;2.27;;;23.30;93.10;;;;;;5029873;28;20684;-67
2022/07/26 00:33:37;;;;;;;4.50;2.17;;;23.20;93.60;;;;;;5029757;28;20611;-67
2022/07/26 00:36:03;;;;;;;3.97;2.00;;;23.20;93.00;;;;;;5029940;28;20427;-68
2022/07/26 00:38:28;;;;;;;5.90;1.93;;;23.20;92.90;;;;;;5029856;28;20183;-68
2022/07/26 00:40:54;;;;;;;2.70;1.40;;;23.20;93.40;;;;;;5012452;28;20680;-67
2022/07/26 00:43:20;;;;;;;3.20;1.70;;;23.10;93.70;;;;;;5012517;28;20530;-67
2022/07/26 00:45:45;;;;;;;3.20;1.83;;;23.10;94.00;;;;;;5012571;28;20190;-68
2022/07/26 00:48:11;;;;;;;2.60;2.27;;;23.10;94.20;;;;;;5029722;28;20234;-68
2022/07/26 00:50:37;;;;;;;3.33;1.60;;;23.10;94.50;;;;;;4995227;28;20215;-68
2022/07/26 00:53:06;;;;;;;9.00;1.90;;;23.10;94.50;;;;;;5029409;28;20224;-68
2022/07/26 00:55:31;;;;;;;3.53;1.70;;;23.00;95.00;;;;;;5029620;28;20202;-68
2022/07/26 00:58:00;;;;;;;5.27;1.80;;;23.00;95.70;;;;;;5029482;28;20431;-68
2022/07/26 01:00:26;;;;;;;3.80;1.97;;;23.00;95.40;;;;;;5011449;28;20213;-69
2022/07/26 01:02:53;;;;;;;1.90;1.50;;;22.90;95.50;;;;;;5011545;28;20495;-68
2022/07/26 01:05:19;;;;;;;2.37;1.70;;;22.80;95.60;;;;;;5029113;28;20953;-68
2022/07/26 01:07:45;;;;;;;3.33;1.90;;;22.80;96.10;;;;;;5011173;28;20456;-68
2022/07/26 01:10:11;;;;;;;4.33;1.87;;;23.00;96.70;;;;;;5011015;28;21026;-67
2022/07/26 01:12:41;;;;;;;5.40;1.63;;;22.80;96.50;;;;;;5011246;28;20456;-68
2022/07/26 01:15:07;;;;;;;4.40;1.97;;;22.80;96.30;;;;;;5011071;28;20249;-67
2022/07/26 01:17:33;;;;;;;5.30;1.97;;;22.80;96.20;;;;;;5029255;28;20509;-68
2022/07/26 01:19:59;;;;;;;6.10;2.10;;;22.60;95.90;;;;;;5011256;28;20428;-68
2022/07/26 01:22:25;;;;;;;6.90;2.27;;;22.70;96.70;;;;;;5010976;28;20187;-68
2022/07/26 01:24:50;;;;;;;3.80;1.97;;;22.70;97.10;;;;;;5028740;28;20202;-67
2022/07/26 01:27:16;;;;;;;7.57;2.00;;;22.70;97.40;;;;;;5028737;28;20186;-68
2022/07/26 01:29:42;;;;;;;3.63;1.67;;;22.70;97.70;;;;;;5010818;28;20198;-67
2022/07/26 01:32:08;;;;;;;2.17;1.30;;;22.60;97.90;;;;;;5010583;28;20534;-67
2022/07/26 01:34:33;;;;;;;2.43;1.80;;;22.60;98.60;;;;;;5028897;28;20266;-67
2022/07/26 01:36:59;;;;;;;2.83;1.60;;;22.60;99.10;;;;;;5010657;28;20677;-68
2022/07/26 01:39:25;;;;;;;5.67;1.73;;;22.60;99.50;;;;;;5028064;28;20275;-68
2022/07/26 01:41:50;;;;;;;2.70;1.60;;;22.60;99.50;;;;;;5028494;28;20642;-67
2022/07/26 01:44:16;;;;;;;8.40;2.00;;;22.60;99.90;;;;;;5028558;28;20198;-68
2022/07/26 01:46:42;;;;;;;2.50;1.40;;;22.60;99.90;;;;;;5028464;28;20271;-68
2022/07/26 01:49:08;;;;;;;8.67;1.60;;;22.60;99.90;;;;;;5010621;28;20191;-67
2022/07/26 01:51:33;;;;;;;8.23;1.43;;;22.50;99.90;;;;;;5028336;28;20712;-68
2022/07/26 01:54:00;;;;;;;4.37;1.97;;;22.60;99.90;;;;;;5028358;28;20878;-68
2022/07/26 01:56:26;;;;;;;5.27;1.53;;;22.50;99.90;;;;;;5028405;28;20424;-68
2022/07/26 01:58:51;;;;;;;2.70;1.40;;;22.50;99.90;;;;;;5028350;28;20413;-68
2022/07/26 02:01:17;;;;;;;2.00;1.47;;;22.40;99.90;;;;;;5028137;28;20628;-68
2022/07/26 02:03:43;;;;;;;5.83;2.43;;;22.40;99.90;;;;;;4993810;28;20201;-68
2022/07/26 02:06:09;;;;;;;6.57;2.10;;;22.30;99.90;;;;;;5028288;28;20508;-68
2022/07/26 02:08:34;;;;;;;4.17;2.13;;;22.20;99.90;;;;;;5028283;28;20572;-68
2022/07/26 02:11:00;;;;;;;5.63;2.80;;;22.20;99.90;;;;;;5010313;28;20246;-68
2022/07/26 02:13:27;;;;;;;14.13;2.47;;;22.20;99.90;;;;;;5028121;28;20213;-68
2022/07/26 02:15:53;;;;;;;6.60;2.20;;;22.20;99.90;;;;;;5028273;28;20650;-67
2022/07/26 02:18:18;;;;;;;3.70;2.17;;;22.10;99.90;;;;;;4993876;28;20551;-68
2022/07/26 02:20:44;;;;;;;3.57;1.47;;;22.10;99.90;;;;;;5028069;28;20209;-68
2022/07/26 02:23:10;;;;;;;5.33;1.93;;;22.10;99.90;;;;;;5028081;28;20190;-67
2022/07/26 02:25:35;;;;;;;4.93;1.50;;;22.10;99.90;;;;;;5010241;28;20198;-68
2022/07/26 02:28:01;;;;;;;3.63;1.47;;;22.10;99.90;;;;;;5027956;28;20209;-68
2022/07/26 02:30:27;;;;;;;4.27;1.67;;;22.10;99.90;;;;;;5027981;28;20217;-68
2022/07/26 02:32:53;;;;;;;5.43;1.60;;;22.10;99.90;;;;;;5009992;28;20190;-68
2022/07/26 02:35:19;;;;;;;1.60;1.50;;;22.10;99.90;;;;;;5010082;28;20425;-68
2022/07/26 02:37:44;;;;;;;7.93;2.03;;;22.10;99.90;;;;;;5010159;28;20239;-68
2022/07/26 02:40:11;;;;;;;5.27;1.63;;;22.00;99.90;;;;;;5028056;28;20210;-68
2022/07/26 02:42:37;;;;;;;3.97;1.97;;;22.00;99.90;;;;;;5028423;28;20178;-68
2022/07/26 02:45:03;;;;;;;8.20;1.80;;;21.90;99.90;;;;;;5029084;28;20777;-68
2022/07/26 02:47:29;;;;;;;2.23;1.27;;;21.80;99.90;;;;;;5027891;28;20722;-67
2022/07/26 02:49:54;;;;;;;1.73;1.40;;;21.60;99.90;;;;;;5027829;28;20438;-68
2022/07/26 02:52:20;;;;;;;1.77;1.50;;;21.60;99.90;;;;;;5011623;28;20420;-68
2022/07/26 02:54:46;;;;;;;3.83;1.70;;;21.50;99.90;;;;;;5013689;28;20220;-67
2022/07/26 02:57:13;;;;;;;3.73;1.60;;;21.40;99.90;;;;;;5031594;28;20195;-68
2022/07/26 02:59:39;;;;;;;3.57;1.67;;;21.30;99.90;;;;;;5032010;28;20235;-67
2022/07/26 03:02:04;;;;;;;3.33;2.10;;;21.30;99.90;;;;;;5031478;28;20935;-67
2022/07/26 03:04:30;;;;;;;5.53;1.77;;;21.30;99.90;;;;;;5031612;28;20238;-66
2022/07/26 03:06:56;;;;;;;2.80;1.50;;;21.20;99.90;;;;;;5031556;28;20655;-67
2022/07/26 03:09:21;;;;;;;2.57;1.50;;;21.20;99.90;;;;;;5013461;28;20568;-67
2022/07/26 03:11:47;;;;;;;2.50;1.60;;;21.20;99.90;;;;;;5031302;28;20208;-66
2022/07/26 03:14:12;;;;;;;10.27;1.70;;;21.20;99.90;;;;;;5031104;28;20216;-67
2022/07/26 03:16:38;;;;;;;2.20;1.67;;;21.20;99.90;;;;;;5031216;28;20181;-67
2022/07/26 03:19:04;;;;;;;7.43;1.70;;;21.00;99.90;;;;;;5012925;28;20322;-67
2022/07/26 03:21:29;;;;;;;2.40;1.43;;;20.90;99.90;;;;;;5031072;28;20204;-67
2022/07/26 03:23:55;;;;;;;2.57;1.83;;;20.80;99.90;;;;;;5013124;28;20672;-67
2022/07/26 03:26:21;;;;;;;6.10;2.30;;;20.60;99.90;;;;;;5030998;28;20193;-67
2022/07/26 03:28:46;;;;;;;5.67;2.07;;;20.50;99.90;;;;;;5030862;28;20279;-67
2022/07/26 03:31:12;;;;;;;4.00;1.90;;;20.30;99.90;;;;;;5030902;28;20286;-67
2022/07/26 03:33:39;;;;;;;3.27;2.20;;;20.00;99.90;;;;;;5012942;28;20625;-67
2022/07/26 03:36:05;;;;;;;4.57;1.77;;;19.90;99.90;;;;;;5031051;28;20667;-67
2022/07/26 03:38:31;;;;;;;1.83;1.63;;;19.80;99.90;;;;;;5030732;28;20451;-67
2022/07/26 03:40:56;;;;;;;2.40;1.77;;;19.70;99.90;;;;;;5030825;28;20878;-67
2022/07/26 03:43:22;;;;;;;3.03;2.37;;;19.60;99.90;;;;;;5030746;28;20193;-67
2022/07/26 03:45:48;;;;;;;5.07;2.07;;;19.60;99.90;;;;;;5030691;28;20929;-67
2022/07/26 03:48:14;;;;;;;3.17;1.50;;;19.50;99.90;;;;;;5030625;28;20203;-67
2022/07/26 03:50:40;;;;;;;2.43;1.80;;;19.50;99.90;;;;;;5030581;28;20228;-66
2022/07/26 03:53:05;;;;;;;4.83;2.20;;;19.50;99.90;;;;;;4996244;28;20283;-66
2022/07/26 03:58:15;;;;;;;3.70;1.70;;;19.70;99.90;;;;;;5030499;28;20202;-67
2022/07/26 04:00:41;;;;;;;4.87;2.13;;;19.60;99.90;;;;;;5011048;28;20447;-66
2022/07/26 04:03:07;;;;;;;3.13;1.70;;;19.70;99.90;;;;;;5010501;28;20801;-66
2022/07/26 04:05:32;;;;;;;1.90;1.80;;;19.70;99.90;;;;;;5028834;28;20191;-66
2022/07/26 04:07:58;;;;;;;6.40;2.30;;;19.90;99.90;;;;;;5010760;28;21074;-65
2022/07/26 04:10:24;;;;;;;8.23;1.67;;;20.00;99.90;;;;;;5028605;28;20213;-64
2022/07/26 04:12:49;;;;;;;5.57;1.90;;;19.80;99.90;;;;;;5028648;28;20188;-64
2022/07/26 04:15:17;;;;;;;2.30;1.80;;;19.70;99.90;;;;;;5028787;28;20268;-64
2022/07/26 04:17:43;;;;;;;1.97;1.70;;;19.60;99.90;;;;;;5028560;28;20201;-64
2022/07/26 04:20:10;;;;;;;2.10;1.80;;;19.70;99.90;;;;;;5028533;28;20446;-64
2022/07/26 04:22:37;;;;;;;4.13;1.90;;;19.80;99.90;;;;;;5028584;28;20428;-64
2022/07/26 04:25:05;;;;;;;2.30;1.60;;;19.90;99.90;;;;;;5028268;28;20435;-64
2022/07/26 04:27:31;;;;;;;5.43;1.83;;;19.90;99.90;;;;;;5028592;28;20455;-64
2022/07/26 04:29:57;;;;;;;3.00;2.20;;;19.80;99.90;;;;;;5028627;28;20426;-65
2022/07/26 04:32:23;;;;;;;2.03;1.20;;;19.80;99.90;;;;;;5028694;28;20808;-64
2022/07/26 04:34:49;;;;;;;4.63;1.50;;;19.90;99.90;;;;;;5011019;28;20257;-64
2022/07/26 04:37:14;;;;;;;1.97;1.40;;;19.70;99.90;;;;;;5011192;28;20299;-64
2022/07/26 04:39:40;;;;;;;3.53;1.60;;;19.80;99.90;;;;;;5028973;28;20465;-64
2022/07/26 04:42:06;;;;;;;2.17;1.60;;;19.80;99.90;;;;;;5028709;28;20251;-64
2022/07/26 04:44:31;;;;;;;4.20;1.53;;;19.90;99.90;;;;;;5028451;28;20728;-64
2022/07/26 04:46:57;;;;;;;5.30;1.60;;;20.00;99.90;;;;;;5010527;28;20193;-64
2022/07/26 04:49:23;;;;;;;4.10;2.10;;;20.20;99.90;;;;;;5028354;28;20282;-64
2022/07/26 04:51:48;;;;;;;2.03;1.83;;;20.30;99.90;;;;;;5028193;28;20230;-64
2022/07/26 04:54:19;;;;;;;2.70;1.70;;;20.40;99.90;;;;;;5028005;28;20293;-64
2022/07/26 04:56:48;;;;;;;2.00;1.80;;;20.50;99.90;;;;;;5028311;28;20180;-64
2022/07/26 04:59:13;;;;;;;4.17;1.73;;;20.50;99.90;;;;;;5027946;28;20520;-64
2022/07/26 05:01:39;;;;;;;2.20;1.70;;;20.60;99.90;;;;;;5027771;28;21323;-65
2022/07/26 05:04:05;;;;;;;3.10;1.57;;;20.60;99.90;;;;;;5027907;28;20467;-64
2022/07/26 05:06:33;;;;;;;2.07;1.60;;;20.70;99.90;;;;;;5028159;28;20207;-64
2022/07/26 05:08:59;;;;;;;3.20;1.70;;;20.80;99.90;;;;;;5027949;28;20204;-64
2022/07/26 05:11:25;;;;;;;3.63;1.63;;;20.80;99.90;;;;;;5027777;28;20458;-64
2022/07/26 05:13:51;;;;;;;3.53;1.70;;;20.90;99.90;;;;;;5027536;28;20524;-65
2022/07/26 05:16:16;;;;;;;2.53;1.73;;;20.90;99.90;;;;;;5027493;28;20569;-65
2022/07/26 05:18:42;;;;;;;2.50;1.50;;;20.90;99.90;;;;;;5027764;28;20204;-64
2022/07/26 05:21:08;;;;;;;3.53;1.40;;;21.00;99.90;;;;;;5027559;28;20227;-64
2022/07/26 05:23:33;;;;;;;1.80;1.50;;;21.10;99.90;;;;;;5027718;28;20234;-65
2022/07/26 05:25:59;;;;;;;8.00;2.20;;;21.10;99.90;;;;;;5027945;28;20243;-65
2022/07/26 05:28:24;;;;;;;2.40;1.83;;;21.20;99.90;;;;;;5027553;28;20212;-64
2022/07/26 05:30:50;;;;;;;1.70;1.57;;;21.20;99.90;;;;;;5027282;28;20210;-64
2022/07/26 05:33:16;;;;;;;2.50;1.83;;;21.30;99.90;;;;;;5027429;28;20244;-65
2022/07/26 05:35:41;;;;;;;2.17;1.97;;;21.30;99.90;;;;;;5027644;28;20186;-65
2022/07/26 05:38:07;;;;;;;1.70;1.40;;;21.40;99.90;;;;;;5027468;28;20185;-64
2022/07/26 05:40:33;;;;;;;4.10;1.50;;;21.40;99.90;;;;;;5027126;28;20207;-65
2022/07/26 05:42:58;;;;;;;4.80;1.63;;;21.50;99.90;;;;;;5027615;28;20188;-64
2022/07/26 05:45:24;;;;;;;1.53;1.43;;;21.60;99.90;;;;;;5028132;28;20264;-64
2022/07/26 05:47:50;;;;;;;1.43;1.30;;;21.70;99.90;;;;;;5027872;28;20186;-64
2022/07/26 05:50:16;;;;;;;2.80;1.70;;;21.70;99.90;;;;;;5010130;28;20212;-64
2022/07/26 05:52:41;;;;;;;2.40;2.07;;;21.80;99.90;;;;;;5029016;28;20435;-64
2022/07/26 05:55:07;;;;;;;3.03;1.47;;;21.80;99.90;;;;;;5010138;28;20213;-64
2022/07/26 05:57:33;;;;;;;3.70;2.10;;;21.90;99.90;;;;;;5027481;28;20193;-64
2022/07/26 05:59:59;;;;;;;1.97;1.80;;;22.00;99.90;;;;;;5026482;28;20442;-65
2022/07/26 06:02:25;;;;;;;2.80;1.60;;;22.10;99.90;;;;;;5026802;28;20431;-65
2022/07/26 06:04:50;;;;;;;3.33;1.80;;;22.20;99.90;;;;;;5027018;28;20618;-64
2022/07/26 06:07:16;;;;;;;4.40;2.10;;;22.20;99.90;;;;;;5026763;28;20193;-64
2022/07/26 06:09:42;;;;;;;1.70;1.60;;;22.20;99.90;;;;;;5026767;28;20199;-64
2022/07/26 06:12:08;;;;;;;2.27;1.33;;;22.20;99.90;;;;;;5026650;28;20201;-65
2022/07/26 06:14:34;;;;;;;1.63;1.50;;;22.20;99.90;;;;;;5026606;28;20476;-64
2022/07/26 06:17:00;;;;;;;3.33;2.00;;;22.20;99.90;;;;;;5027134;28;20188;-65
2022/07/26 06:19:25;;;;;;;5.70;1.97;;;22.30;99.90;;;;;;5026455;28;20456;-64
2022/07/26 06:21:51;;;;;;;3.43;1.73;;;22.40;99.90;;;;;;5026480;28;20475;-65
2022/07/26 06:24:17;;;;;;;7.70;2.07;;;22.40;99.90;;;;;;5026725;28;20220;-65
2022/07/26 06:26:43;;;;;;;3.10;1.70;;;22.50;99.90;;;;;;5029170;28;20193;-64
2022/07/26 06:29:09;;;;;;;1.90;1.47;;;22.60;99.90;;;;;;5030642;28;20622;-65
2022/07/26 06:31:34;;;;;;;4.70;1.93;;;22.60;99.90;;;;;;5029830;28;20451;-64
2022/07/26 06:34:00;;;;;;;2.13;1.63;;;22.60;99.90;;;;;;5012005;28;20245;-65
2022/07/26 06:36:26;;;;;;;4.30;1.77;;;22.60;99.90;;;;;;5030448;28;20195;-65
2022/07/26 06:38:53;;;;;;;6.77;2.17;;;22.70;99.90;;;;;;5030350;28;20190;-65
2022/07/26 06:41:19;;;;;;;2.80;1.90;;;22.80;99.90;;;;;;5012091;28;20210;-65
2022/07/26 06:43:44;;;;;;;4.57;2.27;;;23.00;99.90;;;;;;5030793;28;20433;-65
2022/07/26 06:46:10;;;;;;;3.97;2.03;;;23.10;99.90;;;;;;5030124;28;20188;-64
2022/07/26 06:48:36;;;;;;;2.40;1.97;;;23.00;99.90;;;;;;5030143;28;20603;-64
2022/07/26 06:51:02;;;;;;;2.70;2.10;;;23.00;99.90;;;;;;5029983;28;20244;-65
2022/07/26 06:53:27;;;;;;;5.60;2.30;;;22.90;99.90;;;;;;5030007;28;20721;-64
2022/07/26 06:55:53;;;;;;;4.57;2.13;;;22.90;99.90;;;;;;5030088;28;20426;-65
2022/07/26 06:58:19;;;;;;;3.10;2.30;;;22.90;99.90;;;;;;5011835;28;20255;-64
2022/07/26 07:00:45;;;;;;;5.03;2.63;;;22.90;99.90;;;;;;5011951;28;20241;-65
2022/07/26 07:03:10;;;;;;;3.10;2.60;;;22.80;99.90;;;;;;5011747;28;20202;-64
2022/07/26 07:05:36;;;;;;;3.17;2.50;;;22.80;99.90;;;;;;5029842;28;20286;-64
2022/07/26 07:08:02;;;;;;;3.00;2.73;;;22.70;99.90;;;;;;5029743;28;20187;-64
2022/07/26 07:10:27;;;;;;;5.27;2.53;;;22.60;99.90;;;;;;5011822;28;20736;-65
2022/07/26 07:12:53;;;;;;;2.57;2.37;;;22.50;99.90;;;;;;5029784;28;20190;-65
2022/07/26 07:15:19;;;;;;;8.33;3.03;;;22.40;99.90;;;;;;5029620;28;20223;-65
2022/07/26 07:17:44;;;;;;;4.93;2.60;;;22.50;99.90;;;;;;5029619;28;20195;-64
2022/07/26 07:20:11;;;;;;;5.03;2.73;;;22.60;99.90;;;;;;5029578;28;20301;-65
2022/07/26 07:22:36;;;;;;;7.10;2.47;;;22.60;99.90;;;;;;5029421;28;20287;-64
2022/07/26 07:25:02;;;;;;;2.60;2.40;;;22.70;99.90;;;;;;5029520;28;20526;-65
2022/07/26 07:27:28;;;;;;;3.23;2.83;;;22.80;99.90;;;;;;5029512;28;20267;-64
2022/07/26 07:29:53;;;;;;;5.43;2.37;;;23.00;99.90;;;;;;5029897;28;20542;-65
2022/07/26 07:32:19;;;;;;;4.20;2.80;;;23.00;99.90;;;;;;5029832;28;20200;-64
2022/07/26 07:34:46;;;;;;;5.13;2.20;;;23.10;99.90;;;;;;5029891;28;20752;-64
2022/07/26 07:37:12;;;;;;;5.03;2.63;;;23.20;99.90;;;;;;5029136;28;20237;-65
2022/07/26 07:39:38;;;;;;;3.83;2.90;;;23.20;99.90;;;;;;5012372;28;20439;-64
2022/07/26 07:42:04;;;;;;;6.37;3.00;;;23.10;99.90;;;;;;5030101;28;21033;-64
2022/07/26 07:44:29;;;;;;;3.47;2.03;;;23.10;99.90;;;;;;5030343;28;20280;-64
2022/07/26 07:46:55;;;;;;;7.80;2.60;;;22.90;99.90;;;;;;5029782;28;20197;-64
2022/07/26 07:49:21;;;;;;;7.53;2.80;;;22.90;99.90;;;;;;5029794;28;20195;-66
2022/07/26 07:51:46;;;;;;;3.13;2.63;;;22.80;99.90;;;;;;5029312;28;20210;-64
2022/07/26 07:54:14;;;;;;;8.40;2.70;;;22.90;99.90;;;;;;5029154;28;20218;-64
2022/07/26 07:56:41;;;;;;;4.43;2.80;;;23.00;99.90;;;;;;5029238;28;20188;-65
2022/07/26 07:59:06;;;;;;;4.30;3.03;;;23.00;99.90;;;;;;5029140;28;20422;-65
2022/07/26 08:01:32;;;;;;;4.90;3.00;;;23.20;99.90;;;;;;5028993;28;20828;-65
2022/07/26 08:03:58;;;;;;;4.00;2.90;;;23.20;99.90;;;;;;5029035;28;20219;-64
2022/07/26 08:06:23;;;;;;;3.57;2.53;;;23.30;99.90;;;;;;5028902;28;20202;-65
2022/07/26 08:08:49;;;;;;;3.10;2.20;;;23.40;99.90;;;;;;5028934;28;20202;-65
2022/07/26 08:11:15;;;;;;;4.67;2.20;;;23.40;99.90;;;;;;5028532;28;20211;-65
2022/07/26 08:13:40;;;;;;;5.57;2.73;;;23.30;99.90;;;;;;5010781;28;20606;-64
2022/07/26 08:16:06;;;;;;;3.27;2.30;;;23.40;99.90;;;;;;5028674;28;20591;-64
2022/07/26 08:18:32;;;;;;;4.47;2.30;;;23.50;99.90;;;;;;5028584;28;20203;-65
2022/07/26 08:20:58;;;;;;;6.50;3.40;;;23.60;99.90;;;;;;5028554;28;21090;-64
2022/07/26 08:23:24;;;;;;;6.57;2.47;;;23.60;99.90;;;;;;5028555;28;20271;-65
2022/07/26 08:25:50;;;;;;;4.23;2.13;;;23.60;99.90;;;;;;5010678;28;20487;-65
2022/07/26 08:28:16;;;;;;;2.97;2.00;;;23.60;99.90;;;;;;5028868;28;20188;-64
2022/07/26 08:30:42;;;;;;;7.93;2.83;;;23.60;99.90;;;;;;5028839;28;20997;-64
2022/07/26 08:33:08;;;;;;;6.83;2.40;;;23.50;99.90;;;;;;5029055;28;20420;-65
2022/07/26 08:35:33;;;;;;;3.57;2.27;;;23.60;99.90;;;;;;5011118;28;20811;-65
2022/07/26 08:37:59;;;;;;;5.70;2.30;;;24.00;99.90;;;;;;5028855;28;20191;-65
2022/07/26 08:40:25;;;;;;;2.60;1.90;;;24.10;99.90;;;;;;5029485;28;20214;-65
2022/07/26 08:42:52;;;;;;;3.97;2.20;;;24.10;99.90;;;;;;5028799;28;20386;-64
2022/07/26 08:45:26;;;;;;;3.87;2.30;;;24.10;99.90;;;;;;5028634;28;20187;-64
2022/07/26 08:47:52;;;;;;;5.27;2.93;;;24.20;99.90;;;;;;5028760;28;20974;-64
2022/07/26 08:50:18;;;;;;;8.80;2.73;;;24.30;99.90;;;;;;5028128;28;21013;-64
2022/07/26 08:52:44;;;;;;;5.10;2.40;;;24.60;99.90;;;;;;5028083;28;20434;-64
2022/07/26 08:55:14;;;;;;;7.23;2.57;;;24.90;98.00;;;;;;5028058;28;20484;-63
2022/07/26 08:57:40;;;;;;;5.83;2.27;;;24.90;98.00;;;;;;5028053;28;20422;-64
2022/07/26 09:00:14;;;;;;;4.00;2.30;;;24.80;97.70;;;;;;5028015;28;20419;-64
2022/07/26 09:02:40;;;;;;;6.30;2.30;;;24.60;97.80;;;;;;5028129;28;20441;-64
2022/07/26 09:05:06;;;;;;;3.93;2.27;;;24.40;97.50;;;;;;5028172;28;20930;-64
2022/07/26 09:07:33;;;;;;;2.93;2.17;;;24.20;96.30;;;;;;5027889;28;20661;-64
2022/07/26 09:10:00;;;;;;;6.53;2.17;;;24.10;96.70;;;;;;5027954;28;20424;-64
2022/07/26 09:12:28;;;;;;;7.33;2.23;;;24.10;97.90;;;;;;5028302;28;20427;-65
2022/07/26 09:14:54;;;;;;;3.83;2.57;;;24.10;97.90;;;;;;5009758;28;20475;-65
2022/07/26 09:17:22;;;;;;;1.80;1.53;;;23.80;96.70;;;;;;5027980;28;20484;-64
2022/07/26 09:20:11;;;;;;;2.43;1.40;;;24.00;97.10;;;;;;5027786;28;20445;-65
2022/07/26 09:22:38;;;;;;;5.40;1.80;;;24.70;96.70;;;;;;5027939;28;20425;-64
2022/07/26 09:25:24;;;;;;;6.23;1.90;;;25.30;95.90;;;;;;5027581;28;20512;-64
2022/07/26 09:27:51;;;;;;;4.67;1.80;;;25.60;93.80;;;;;;5027804;28;20435;-64
2022/07/26 09:30:16;;;;;;;5.50;1.80;;;25.40;94.60;;;;;;5027716;28;20449;-64
2022/07/26 09:32:57;;;;;;;3.17;1.60;;;25.50;91.90;;;;;;5027738;28;20937;-64
2022/07/26 09:35:23;;;;;;;1.77;1.37;;;25.30;92.00;;;;;;5027896;28;20212;-64
2022/07/26 09:37:49;;;;;;;3.70;1.73;;;25.00;92.10;;;;;;5028039;28;20438;-64
2022/07/26 09:40:16;;;;;;;1.97;1.30;;;24.90;92.30;;;;;;5028106;28;20211;-65
2022/07/26 09:42:57;;;;;;;3.87;1.33;;;25.00;92.40;;;;;;5027907;28;20202;-65
2022/07/26 09:45:24;;;;;;;2.70;1.30;;;25.70;90.40;;;;;;5027755;28;20505;-65
2022/07/26 09:47:51;;;;;;;5.10;1.43;;;25.70;87.80;;;;;;5027636;28;20863;-65
2022/07/26 09:50:21;;;;;;;4.43;1.50;;;25.90;90.00;;;;;;5027738;28;20951;-65
2022/07/26 09:52:58;;;;;;;2.70;1.50;;;25.90;88.00;;;;;;5027486;28;20446;-65
2022/07/26 09:55:24;;;;;;;2.63;1.70;;;26.50;89.70;;;;;;5027550;28;21076;-65
2022/07/26 09:57:50;;;;;;;4.90;1.70;;;27.00;86.10;;;;;;5027785;28;20415;-65
2022/07/26 10:00:17;;;;;;;1.50;1.20;;;27.10;83.00;;;;;;5027392;28;20749;-65
2022/07/26 10:02:43;;;;;;;7.77;1.17;;;27.60;81.70;;;;;;5026892;28;20939;-65
2022/07/26 10:05:08;;;;;;;4.90;1.30;;;28.10;82.10;;;;;;5027271;28;20434;-65
2022/07/26 10:07:35;;;;;;;3.53;1.20;;;28.40;77.20;;;;;;5027555;28;20286;-65
2022/07/26 10:10:06;;;;;;;3.53;1.33;;;28.70;76.20;;;;;;5027984;28;20184;-65
2022/07/26 10:12:32;;;;;;;4.27;1.43;;;28.80;74.50;;;;;;5027568;28;20431;-64
2022/07/26 10:14:58;;;;;;;2.37;1.10;;;28.00;72.70;;;;;;5027691;28;20513;-65
2022/07/26 10:17:32;;;;;;;2.70;1.13;;;27.50;73.80;;;;;;5027213;28;20422;-65
2022/07/26 10:20:07;;;;;;;2.63;1.10;;;27.40;75.80;;;;;;5009388;28;20673;-65
2022/07/26 10:22:46;;;;;;;2.60;1.13;;;27.90;73.90;;;;;;5026789;28;20522;-65
2022/07/26 10:25:18;;;;;;;5.47;1.30;;;28.30;72.20;;;;;;5027807;28;21009;-64
2022/07/26 10:27:48;;;;;;;2.23;1.00;;;28.80;70.80;;;;;;5027597;28;20446;-65
2022/07/26 10:30:17;;;;;;;3.60;1.10;;;29.10;69.70;;;;;;5009824;28;20445;-65
2022/07/26 10:33:09;;;;;;;4.00;1.37;;;28.50;67.00;;;;;;5027509;28;20453;-65
2022/07/26 10:35:41;;;;;;;2.40;1.10;;;28.40;68.40;;;;;;5027524;28;20833;-64
2022/07/26 10:38:08;;;;;;;1.87;0.90;;;28.10;69.60;;;;;;5009276;28;20407;-64
2022/07/26 10:40:35;;;;;;;1.63;1.10;;;28.50;67.90;;;;;;5027107;28;20443;-64
2022/07/26 10:43:11;;;;;;;3.33;1.47;;;28.90;65.80;;;;;;5009117;28;20427;-65
2022/07/26 10:45:37;;;;;;;5.27;1.80;;;29.10;66.50;;;;;;5027265;28;20429;-65
2022/07/26 10:48:23;;;;;;;2.60;1.30;;;28.60;62.90;;;;;;5009019;28;20511;-65
2022/07/26 10:50:51;;;;;;;2.97;1.20;;;27.90;63.50;;;;;;5026421;28;20450;-65
2022/07/26 10:53:22;;;;;;;1.13;0.90;;;27.40;64.50;;;;;;5026792;28;20416;-64
2022/07/26 10:55:53;;;;;;;3.37;1.10;;;27.60;67.80;;;;;;5026950;28;20514;-65
2022/07/26 10:58:19;;;;;;;1.37;1.10;;;28.30;67.20;;;;;;5027010;28;20427;-64
2022/07/26 11:01:00;;;;;;;2.07;1.23;;;28.90;65.50;;;;;;5026641;28;20470;-64
2022/07/26 11:03:35;;;;;;;1.30;1.10;;;29.60;65.40;;;;;;5026857;28;20486;-64
2022/07/26 11:06:18;;;;;;;6.33;1.10;;;30.10;62.70;;;;;;5026831;28;20460;-64
2022/07/26 11:08:46;;;;;;;2.17;1.00;;;30.20;59.60;;;;;;5026535;28;20982;-64
2022/07/26 11:11:12;;;;;;;2.17;1.27;;;30.40;59.80;;;;;;5026415;28;20445;-63
2022/07/26 11:13:39;;;;;;;2.20;1.00;;;30.40;59.40;;;;;;5028566;28;20458;-64
2022/07/26 11:16:07;;;;;;;3.20;1.23;;;29.70;59.20;;;;;;5030666;28;20411;-64
2022/07/26 11:18:35;;;;;;;3.60;1.00;;;29.30;60.00;;;;;;5030145;28;20443;-64
2022/07/26 11:21:11;;;;;;;6.40;1.20;;;29.60;60.60;;;;;;5030037;28;20435;-64
2022/07/26 11:23:39;;;;;;;3.93;1.10;;;30.10;59.10;;;;;;5029990;28;20426;-64
2022/07/26 11:26:09;;;;;;;1.30;0.90;;;30.30;58.80;;;;;;5012121;28;21013;-64
2022/07/26 11:28:45;;;;;;;2.10;1.03;;;30.60;57.80;;;;;;5012035;28;20431;-64
2022/07/26 11:31:11;;;;;;;1.70;1.40;;;30.70;57.40;;;;;;5029782;28;20946;-64
2022/07/26 11:33:42;;;;;;;1.73;0.90;;;30.90;56.90;;;;;;5029920;28;20466;-64
2022/07/26 11:36:08;;;;;;;3.83;1.23;;;31.20;57.50;;;;;;5030275;28;20519;-64
2022/07/26 11:38:53;;;;;;;1.83;1.20;;;30.70;56.30;;;;;;5011819;28;20419;-64
2022/07/26 11:41:21;;;;;;;2.00;1.10;;;30.30;57.40;;;;;;5030213;28;20496;-64
2022/07/26 11:43:47;;;;;;;3.67;0.93;;;30.50;56.50;;;;;;5029418;28;20430;-68
2022/07/26 11:46:14;;;;;;;2.60;1.03;;;30.80;56.40;;;;;;4995146;28;20435;-67
2022/07/26 11:48:47;;;;;;;2.90;1.20;;;31.00;55.60;;;;;;5029203;28;20429;-67
2022/07/26 11:51:17;;;;;;;2.40;0.90;;;31.20;55.70;;;;;;5029169;28;21122;-67
2022/07/26 11:53:44;;;;;;;6.13;1.20;;;31.30;55.30;;;;;;5029112;28;20466;-67
2022/07/26 11:56:20;;;;;;;1.20;1.10;;;30.90;54.10;;;;;;5029192;28;20537;-68
2022/07/26 11:58:48;;;;;;;4.90;1.40;;;29.80;54.10;;;;;;5029280;28;20756;-67
2022/07/26 12:01:17;;;;;;;4.07;1.10;;;29.00;55.80;;;;;;5030055;28;20435;-66
2022/07/26 12:03:45;;;;;;;5.07;1.50;;;29.30;56.50;;;;;;5029950;28;20449;-67
2022/07/26 12:06:17;;;;;;;2.47;1.10;;;29.80;55.80;;;;;;5029401;28;20466;-68
2022/07/26 12:08:50;;;;;;;2.73;1.00;;;29.50;54.30;;;;;;5029534;28;20430;-67
2022/07/26 12:11:17;;;;;;;3.47;1.37;;;29.00;56.00;;;;;;5029158;28;20445;-67
2022/07/26 12:14:00;;;;;;;1.60;1.30;;;28.80;57.40;;;;;;5029055;28;20459;-67
2022/07/26 12:16:46;;;;;;;3.30;1.20;;;29.00;55.90;;;;;;5028596;28;20419;-67
2022/07/26 12:19:18;;;;;;;1.27;0.80;;;29.80;58.30;;;;;;5029180;28;21137;-67
2022/07/26 12:22:07;;;;;;;1.50;1.40;;;30.20;56.10;;;;;;5029521;28;20441;-67
2022/07/26 12:24:45;;;;;;;1.20;1.10;;;30.00;55.30;;;;;;5029333;28;20419;-67
2022/07/26 12:27:23;;;;;;;1.63;1.20;;;29.50;54.80;;;;;;5029778;28;20930;-67
2022/07/26 12:30:10;;;;;;;3.50;1.20;;;29.10;55.00;;;;;;5029919;28;20413;-67
2022/07/26 12:32:40;;;;;;;2.00;1.10;;;28.90;57.00;;;;;;5029215;28;20431;-67
2022/07/26 12:35:14;;;;;;;6.63;1.47;;;28.70;57.40;;;;;;5011941;28;20474;-67
2022/07/26 12:37:46;;;;;;;4.50;1.20;;;29.10;56.50;;;;;;5029846;28;20494;-67
2022/07/26 12:40:16;;;;;;;1.00;0.90;;;29.10;56.90;;;;;;5029438;28;20431;-67
2022/07/26 12:42:43;;;;;;;1.63;0.90;;;29.50;56.10;;;;;;5029680;28;20412;-67
2022/07/26 12:45:10;;;;;;;1.20;0.90;;;29.80;55.00;;;;;;5029842;28;20944;-67
2022/07/26 12:47:38;;;;;;;2.40;1.00;;;29.50;54.40;;;;;;5011362;28;20500;-67
2022/07/26 12:50:05;;;;;;;4.43;1.23;;;28.90;55.40;;;;;;5029008;28;20423;-67